sensor_id;sensor_type;location;lat;lon;timestamp;temperature;humidity
52903;DHT22;38765;53.176;7.090;2022-09-01T00:00:19;12.90;99.90
52903;DHT22;38765;53.176;7.090;2022-09-01T00:03:08;13.50;99.90
52903;DHT22;38765;53.176;7.090;2022-09-01T00:06:09;13.50;99.90
52903;DHT22;38765;53.176;7.090;2022-09-01T00:08:51;13.20;99.90
52903;DHT22;38765;53.176;7.090;2022-09-01T00:11:44;13.30;99.90
52903;DHT22;38765;53.176;7.090;2022-09-01T00:16:58;13.20;99.90
52903;DHT22;38765;53.176;7.090;2022-09-01T00:19:43;13.30;99.90
52903;DHT22;38765;53.176;7.090;2022-09-01T00:22:36;13.20;99.90
52903;DHT22;38765;53.176;7.090;2022-09-01T00:25:21;13.10;99.90
52903;DHT22;38765;53.176;7.090;2022-09-01T00:28:00;13.10;99.90
52903;DHT22;38765;53.176;7.090;2022-09-01T00:37:23;12.90;99.90
52903;DHT22;38765;53.176;7.090;2022-09-01T00:43:35;13.00;99.90
52903;DHT22;38765;53.176;7.090;2022-09-01T00:49:16;13.10;99.90
52903;DHT22;38765;53.176;7.090;2022-09-01T00:52:47;12.20;99.90
52903;DHT22;38765;53.176;7.090;2022-09-01T00:55:36;13.00;99.90
52903;DHT22;38765;53.176;7.090;2022-09-01T00:58:39;13.00;99.90
52903;DHT22;38765;53.176;7.090;2022-09-01T01:01:41;12.90;99.90
52903;DHT22;38765;53.176;7.090;2022-09-01T01:04:27;12.90;99.90
52903;DHT22;38765;53.176;7.090;2022-09-01T01:07:15;12.80;99.90
52903;DHT22;38765;53.176;7.090;2022-09-01T01:10:27;13.50;99.90
52903;DHT22;38765;53.176;7.090;2022-09-01T01:16:16;13.00;99.90
52903;DHT22;38765;53.176;7.090;2022-09-01T01:22:03;12.90;99.90
52903;DHT22;38765;53.176;7.090;2022-09-01T01:24:58;12.80;99.90
52903;DHT22;38765;53.176;7.090;2022-09-01T01:27:33;12.60;99.90
52903;DHT22;38765;53.176;7.090;2022-09-01T01:33:07;12.70;99.90
52903;DHT22;38765;53.176;7.090;2022-09-01T01:35:47;12.80;99.90
52903;DHT22;38765;53.176;7.090;2022-09-01T01:41:22;12.70;99.90
52903;DHT22;38765;53.176;7.090;2022-09-01T01:47:29;12.80;99.90
52903;DHT22;38765;53.176;7.090;2022-09-01T02:00:05;12.80;99.90
52903;DHT22;38765;53.176;7.090;2022-09-01T02:07:01;12.80;99.90
52903;DHT22;38765;53.176;7.090;2022-09-01T02:09:58;12.60;99.90
52903;DHT22;38765;53.176;7.090;2022-09-01T02:15:36;12.80;99.90
52903;DHT22;38765;53.176;7.090;2022-09-01T02:27:38;12.80;99.90
52903;DHT22;38765;53.176;7.090;2022-09-01T02:31:03;12.40;99.90
52903;DHT22;38765;53.176;7.090;2022-09-01T02:47:23;12.80;99.90
52903;DHT22;38765;53.176;7.090;2022-09-01T02:50:11;12.20;99.90
52903;DHT22;38765;53.176;7.090;2022-09-01T02:52:59;12.60;99.90
52903;DHT22;38765;53.176;7.090;2022-09-01T02:55:28;12.20;99.90
52903;DHT22;38765;53.176;7.090;2022-09-01T02:58:09;12.60;99.90
52903;DHT22;38765;53.176;7.090;2022-09-01T03:00:45;12.50;99.90
52903;DHT22;38765;53.176;7.090;2022-09-01T03:03:26;12.60;99.90
52903;DHT22;38765;53.176;7.090;2022-09-01T03:06:01;12.60;99.90
52903;DHT22;38765;53.176;7.090;2022-09-01T03:14:30;12.50;99.90
52903;DHT22;38765;53.176;7.090;2022-09-01T03:20:08;12.50;99.90
52903;DHT22;38765;53.176;7.090;2022-09-01T03:22:57;12.50;99.90
52903;DHT22;38765;53.176;7.090;2022-09-01T03:26:06;12.50;99.90
52903;DHT22;38765;53.176;7.090;2022-09-01T03:28:38;12.40;99.90
52903;DHT22;38765;53.176;7.090;2022-09-01T03:31:04;12.30;99.90
52903;DHT22;38765;53.176;7.090;2022-09-01T03:33:38;12.50;99.90
52903;DHT22;38765;53.176;7.090;2022-09-01T03:36:37;12.50;99.90
52903;DHT22;38765;53.176;7.090;2022-09-01T03:39:04;13.20;99.90
52903;DHT22;38765;53.176;7.090;2022-09-01T03:41:52;12.50;99.90
52903;DHT22;38765;53.176;7.090;2022-09-01T03:44:35;12.60;99.90
52903;DHT22;38765;53.176;7.090;2022-09-01T03:47:22;12.60;99.90
52903;DHT22;38765;53.176;7.090;2022-09-01T03:49:49;12.70;99.90
52903;DHT22;38765;53.176;7.090;2022-09-01T03:52:24;12.60;99.90
52903;DHT22;38765;53.176;7.090;2022-09-01T03:54:57;12.40;99.90
52903;DHT22;38765;53.176;7.090;2022-09-01T04:00:50;12.60;99.90
52903;DHT22;38765;53.176;7.090;2022-09-01T04:16:40;12.60;99.90
52903;DHT22;38765;53.176;7.090;2022-09-01T04:22:00;12.60;99.90
52903;DHT22;38765;53.176;7.090;2022-09-01T04:25:18;12.60;99.90
52903;DHT22;38765;53.176;7.090;2022-09-01T04:28:11;12.40;99.90
52903;DHT22;38765;53.176;7.090;2022-09-01T04:31:20;12.60;99.90
52903;DHT22;38765;53.176;7.090;2022-09-01T04:34:22;12.70;99.90
52903;DHT22;38765;53.176;7.090;2022-09-01T04:36:57;12.70;99.90
52903;DHT22;38765;53.176;7.090;2022-09-01T04:39:29;12.60;99.90
52903;DHT22;38765;53.176;7.090;2022-09-01T04:48:36;12.60;99.90
52903;DHT22;38765;53.176;7.090;2022-09-01T04:54:01;12.60;99.90
52903;DHT22;38765;53.176;7.090;2022-09-01T04:56:50;12.50;99.90
52903;DHT22;38765;53.176;7.090;2022-09-01T04:59:33;12.10;99.90
52903;DHT22;38765;53.176;7.090;2022-09-01T05:02:43;12.50;99.90
52903;DHT22;38765;53.176;7.090;2022-09-01T05:11:34;12.50;99.90
52903;DHT22;38765;53.176;7.090;2022-09-01T05:17:18;12.50;99.90
52903;DHT22;38765;53.176;7.090;2022-09-01T05:20:37;12.40;99.90
52903;DHT22;38765;53.176;7.090;2022-09-01T05:23:43;12.60;99.90
52903;DHT22;38765;53.176;7.090;2022-09-01T05:38:41;12.90;99.90
52903;DHT22;38765;53.176;7.090;2022-09-01T05:41:21;13.00;99.90
52903;DHT22;38765;53.176;7.090;2022-09-01T05:44:21;13.00;99.90
52903;DHT22;38765;53.176;7.090;2022-09-01T05:47:23;13.10;99.90
52903;DHT22;38765;53.176;7.090;2022-09-01T05:49:58;13.20;99.90
52903;DHT22;38765;53.176;7.090;2022-09-01T05:55:49;13.10;99.90
52903;DHT22;38765;53.176;7.090;2022-09-01T05:59:02;13.40;99.90
52903;DHT22;38765;53.176;7.090;2022-09-01T06:02:19;13.40;99.90
52903;DHT22;38765;53.176;7.090;2022-09-01T06:05:11;13.50;99.90
52903;DHT22;38765;53.176;7.090;2022-09-01T06:32:28;14.30;99.90
52903;DHT22;38765;53.176;7.090;2022-09-01T06:35:02;14.30;99.90
52903;DHT22;38765;53.176;7.090;2022-09-01T06:37:34;14.40;99.90
52903;DHT22;38765;53.176;7.090;2022-09-01T06:40:20;14.50;99.90
52903;DHT22;38765;53.176;7.090;2022-09-01T09:05:20;17.80;99.90
52903;DHT22;38765;53.176;7.090;2022-09-01T09:11:12;18.10;99.90
52903;DHT22;38765;53.176;7.090;2022-09-01T11:34:31;21.30;99.90
52903;DHT22;38765;53.176;7.090;2022-09-01T11:37:54;21.30;99.90
52903;DHT22;38765;53.176;7.090;2022-09-01T11:40:41;21.40;99.90
52903;DHT22;38765;53.176;7.090;2022-09-01T11:58:30;21.90;99.90
52903;DHT22;38765;53.176;7.090;2022-09-01T12:01:32;21.90;99.90
52903;DHT22;38765;53.176;7.090;2022-09-01T12:04:40;21.90;99.90
52903;DHT22;38765;53.176;7.090;2022-09-01T12:07:40;22.00;99.90
52903;DHT22;38765;53.176;7.090;2022-09-01T12:10:35;22.10;99.90
52903;DHT22;38765;53.176;7.090;2022-09-01T12:13:35;22.30;99.90
52903;DHT22;38765;53.176;7.090;2022-09-01T12:16:30;22.50;99.90
52903;DHT22;38765;53.176;7.090;2022-09-01T12:19:32;22.70;99.90
52903;DHT22;38765;53.176;7.090;2022-09-01T12:25:50;23.00;99.90
52903;DHT22;38765;53.176;7.090;2022-09-01T12:31:26;23.20;97.90
52903;DHT22;38765;53.176;7.090;2022-09-01T12:35:04;23.20;99.10
52903;DHT22;38765;53.176;7.090;2022-09-01T12:41:24;23.30;99.90
52903;DHT22;38765;53.176;7.090;2022-09-01T12:43:57;23.40;99.60
52903;DHT22;38765;53.176;7.090;2022-09-01T12:46:47;23.50;97.90
52903;DHT22;38765;53.176;7.090;2022-09-01T12:49:44;23.50;97.80
52903;DHT22;38765;53.176;7.090;2022-09-01T13:20:54;23.50;95.20
52903;DHT22;38765;53.176;7.090;2022-09-01T13:24:17;23.50;95.10
52903;DHT22;38765;53.176;7.090;2022-09-01T13:26:57;23.70;95.00
52903;DHT22;38765;53.176;7.090;2022-09-01T13:36:29;24.00;94.60
52903;DHT22;38765;53.176;7.090;2022-09-01T13:39:08;24.00;94.30
52903;DHT22;38765;53.176;7.090;2022-09-01T13:41:57;24.00;93.40
52903;DHT22;38765;53.176;7.090;2022-09-01T13:45:05;24.00;93.50
52903;DHT22;38765;53.176;7.090;2022-09-01T13:51:31;24.40;93.90
52903;DHT22;38765;53.176;7.090;2022-09-01T13:54:16;24.50;92.90
52903;DHT22;38765;53.176;7.090;2022-09-01T13:56:47;24.40;91.80
52903;DHT22;38765;53.176;7.090;2022-09-01T14:00:03;24.30;92.50
52903;DHT22;38765;53.176;7.090;2022-09-01T14:02:59;24.20;92.10
52903;DHT22;38765;53.176;7.090;2022-09-01T14:30:24;24.70;90.20
52903;DHT22;38765;53.176;7.090;2022-09-01T14:33:40;24.50;89.30
52903;DHT22;38765;53.176;7.090;2022-09-01T14:37:17;24.30;89.00
52903;DHT22;38765;53.176;7.090;2022-09-01T14:40:13;23.90;88.70
52903;DHT22;38765;53.176;7.090;2022-09-01T14:46:57;23.80;90.50
52903;DHT22;38765;53.176;7.090;2022-09-01T14:49:50;24.00;90.00
52903;DHT22;38765;53.176;7.090;2022-09-01T14:57:01;24.30;88.00
52903;DHT22;38765;53.176;7.090;2022-09-01T15:00:23;24.50;87.40
52903;DHT22;38765;53.176;7.090;2022-09-01T15:07:16;24.30;84.40
52903;DHT22;38765;53.176;7.090;2022-09-01T15:23:00;24.40;83.70
52903;DHT22;38765;53.176;7.090;2022-09-01T15:26:00;24.30;83.20
52903;DHT22;38765;53.176;7.090;2022-09-01T15:29:15;24.00;82.40
52903;DHT22;38765;53.176;7.090;2022-09-01T15:35:32;23.90;82.80
52903;DHT22;38765;53.176;7.090;2022-09-01T17:44:23;21.40;83.10
52903;DHT22;38765;53.176;7.090;2022-09-01T17:50:47;21.20;82.60
52903;DHT22;38765;53.176;7.090;2022-09-01T18:09:46;20.60;95.20
52903;DHT22;38765;53.176;7.090;2022-09-01T18:12:22;20.30;95.20
52903;DHT22;38765;53.176;7.090;2022-09-01T18:14:58;20.20;97.00
52903;DHT22;38765;53.176;7.090;2022-09-01T18:24:05;20.00;99.90
52903;DHT22;38765;53.176;7.090;2022-09-01T18:26:49;19.60;99.90
52903;DHT22;38765;53.176;7.090;2022-09-01T18:29:39;19.70;99.90
52903;DHT22;38765;53.176;7.090;2022-09-01T18:35:25;19.50;99.90
52903;DHT22;38765;53.176;7.090;2022-09-01T18:41:31;19.40;99.90
52903;DHT22;38765;53.176;7.090;2022-09-01T18:47:30;19.20;99.90
52903;DHT22;38765;53.176;7.090;2022-09-01T18:50:37;19.10;99.90
52903;DHT22;38765;53.176;7.090;2022-09-01T18:53:26;18.90;99.90
52903;DHT22;38765;53.176;7.090;2022-09-01T19:08:16;18.70;99.90
52903;DHT22;38765;53.176;7.090;2022-09-01T19:20:57;18.60;99.90
52903;DHT22;38765;53.176;7.090;2022-09-01T19:27:30;18.30;99.90
52903;DHT22;38765;53.176;7.090;2022-09-01T19:36:10;18.20;99.90
52903;DHT22;38765;53.176;7.090;2022-09-01T19:38:42;17.90;99.90
52903;DHT22;38765;53.176;7.090;2022-09-01T19:41:25;18.50;99.90
52903;DHT22;38765;53.176;7.090;2022-09-01T19:44:19;18.00;99.90
52903;DHT22;38765;53.176;7.090;2022-09-01T19:47:02;18.10;99.90
52903;DHT22;38765;53.176;7.090;2022-09-01T19:52:39;18.00;99.90
52903;DHT22;38765;53.176;7.090;2022-09-01T19:55:30;17.90;99.90
52903;DHT22;38765;53.176;7.090;2022-09-01T20:01:10;17.80;99.90
52903;DHT22;38765;53.176;7.090;2022-09-01T20:06:45;17.60;99.90
52903;DHT22;38765;53.176;7.090;2022-09-01T20:09:23;17.50;99.90
52903;DHT22;38765;53.176;7.090;2022-09-01T20:12:25;17.50;99.90
52903;DHT22;38765;53.176;7.090;2022-09-01T20:18:02;16.90;99.90
52903;DHT22;38765;53.176;7.090;2022-09-01T20:20:59;17.30;99.90
52903;DHT22;38765;53.176;7.090;2022-09-01T20:27:01;17.00;99.90
52903;DHT22;38765;53.176;7.090;2022-09-01T20:29:54;17.00;99.90
52903;DHT22;38765;53.176;7.090;2022-09-01T20:41:24;17.00;99.90
52903;DHT22;38765;53.176;7.090;2022-09-01T20:43:55;16.90;99.90
52903;DHT22;38765;53.176;7.090;2022-09-01T20:46:24;16.90;99.90
52903;DHT22;38765;53.176;7.090;2022-09-01T20:48:52;16.80;99.90
52903;DHT22;38765;53.176;7.090;2022-09-01T20:59:54;16.60;99.90
52903;DHT22;38765;53.176;7.090;2022-09-01T21:02:57;16.60;99.90
52903;DHT22;38765;53.176;7.090;2022-09-01T21:16:19;16.50;99.90
52903;DHT22;38765;53.176;7.090;2022-09-01T21:19:15;16.40;99.90
52903;DHT22;38765;53.176;7.090;2022-09-01T21:22:07;16.10;99.90
52903;DHT22;38765;53.176;7.090;2022-09-01T21:24:36;16.30;99.90
52903;DHT22;38765;53.176;7.090;2022-09-01T21:27:14;16.20;99.90
52903;DHT22;38765;53.176;7.090;2022-09-01T21:32:22;16.10;99.90
52903;DHT22;38765;53.176;7.090;2022-09-01T21:34:51;16.00;99.90
52903;DHT22;38765;53.176;7.090;2022-09-01T21:37:26;15.90;99.90
52903;DHT22;38765;53.176;7.090;2022-09-01T21:40:10;15.90;99.90
52903;DHT22;38765;53.176;7.090;2022-09-01T21:42:53;15.80;99.90
52903;DHT22;38765;53.176;7.090;2022-09-01T21:45:23;15.80;99.90
52903;DHT22;38765;53.176;7.090;2022-09-01T21:47:52;15.70;99.90
52903;DHT22;38765;53.176;7.090;2022-09-01T21:50:23;15.70;99.90
52903;DHT22;38765;53.176;7.090;2022-09-01T21:52:49;15.40;99.90
52903;DHT22;38765;53.176;7.090;2022-09-01T21:55:16;15.60;99.90
52903;DHT22;38765;53.176;7.090;2022-09-01T21:57:42;15.60;99.90
52903;DHT22;38765;53.176;7.090;2022-09-01T22:00:17;15.50;99.90
52903;DHT22;38765;53.176;7.090;2022-09-01T22:02:55;15.60;99.90
52903;DHT22;38765;53.176;7.090;2022-09-01T22:05:24;15.30;99.90
52903;DHT22;38765;53.176;7.090;2022-09-01T22:07:56;15.40;99.90
52903;DHT22;38765;53.176;7.090;2022-09-01T22:10:39;15.50;99.90
52903;DHT22;38765;53.176;7.090;2022-09-01T22:13:08;15.50;99.90
52903;DHT22;38765;53.176;7.090;2022-09-01T22:15:43;15.50;99.90
52903;DHT22;38765;53.176;7.090;2022-09-01T22:18:15;15.50;99.90
52903;DHT22;38765;53.176;7.090;2022-09-01T22:20:42;15.50;99.90
52903;DHT22;38765;53.176;7.090;2022-09-01T22:23:10;15.40;99.90
52903;DHT22;38765;53.176;7.090;2022-09-01T22:25:54;15.80;99.90
52903;DHT22;38765;53.176;7.090;2022-09-01T22:28:20;15.60;99.90
52903;DHT22;38765;53.176;7.090;2022-09-01T22:30:48;15.40;99.90
52903;DHT22;38765;53.176;7.090;2022-09-01T22:33:23;15.40;99.90
52903;DHT22;38765;53.176;7.090;2022-09-01T22:36:17;15.10;99.90
52903;DHT22;38765;53.176;7.090;2022-09-01T22:38:45;15.20;99.90
52903;DHT22;38765;53.176;7.090;2022-09-01T22:41:18;15.20;99.90
52903;DHT22;38765;53.176;7.090;2022-09-01T22:43:44;15.10;99.90
52903;DHT22;38765;53.176;7.090;2022-09-01T22:46:17;15.20;99.90
52903;DHT22;38765;53.176;7.090;2022-09-01T22:49:07;15.20;99.90
52903;DHT22;38765;53.176;7.090;2022-09-01T22:51:41;15.20;99.90
52903;DHT22;38765;53.176;7.090;2022-09-01T22:54:07;15.20;99.90
52903;DHT22;38765;53.176;7.090;2022-09-01T22:56:42;15.20;99.90
52903;DHT22;38765;53.176;7.090;2022-09-01T22:59:13;15.20;99.90
52903;DHT22;38765;53.176;7.090;2022-09-01T23:02:05;15.20;99.90
52903;DHT22;38765;53.176;7.090;2022-09-01T23:04:39;15.30;99.90
52903;DHT22;38765;53.176;7.090;2022-09-01T23:07:41;15.20;99.90
52903;DHT22;38765;53.176;7.090;2022-09-01T23:10:36;15.20;99.90
52903;DHT22;38765;53.176;7.090;2022-09-01T23:13:12;15.20;99.90
52903;DHT22;38765;53.176;7.090;2022-09-01T23:16:20;15.20;99.90
52903;DHT22;38765;53.176;7.090;2022-09-01T23:19:00;15.30;99.90
52903;DHT22;38765;53.176;7.090;2022-09-01T23:21:40;15.30;99.90
52903;DHT22;38765;53.176;7.090;2022-09-01T23:24:22;15.30;99.90
52903;DHT22;38765;53.176;7.090;2022-09-01T23:26:57;15.30;99.90
52903;DHT22;38765;53.176;7.090;2022-09-01T23:29:26;15.30;99.90
52903;DHT22;38765;53.176;7.090;2022-09-01T23:32:28;15.30;99.90
52903;DHT22;38765;53.176;7.090;2022-09-01T23:35:19;15.00;99.90
52903;DHT22;38765;53.176;7.090;2022-09-01T23:37:54;15.30;99.90
52903;DHT22;38765;53.176;7.090;2022-09-01T23:40:47;15.20;99.90
52903;DHT22;38765;53.176;7.090;2022-09-01T23:43:37;15.20;99.90
52903;DHT22;38765;53.176;7.090;2022-09-01T23:46:37;15.10;99.90
52903;DHT22;38765;53.176;7.090;2022-09-01T23:49:05;15.10;99.90
52903;DHT22;38765;53.176;7.090;2022-09-01T23:51:31;15.00;99.90
52903;DHT22;38765;53.176;7.090;2022-09-01T23:54:30;15.20;99.90
52903;DHT22;38765;53.176;7.090;2022-09-01T23:57:24;14.40;99.90
